N59BS KBED-KTEB
Flight info
| Callsign | N59BS |
|---|---|
| Flight time | N/A |
| Altitude | 16000 |
| Route | REVSS BAF MOBBS T295 SAGES V489 COATE |
| Aircraft | C525/L-SDFGRWY/S |
Departure
| Time | 2026-04-27 18:02 |
|---|---|
| Airport | Laurence G Hanscom Field (KBED) |
Arrival
| Time | N/A |
|---|---|
| Airport | Teterboro Airport (KTEB) |
| Time | Latitude | Longitude | Altitude | Speed | Heading |
|---|---|---|---|---|---|
| 2026-04-27 17:50 | 42.46172 | -71.29371 | 129 ft | 0 kts | 309° |
| 2026-04-27 17:56 | 42.46172 | -71.29372 | 129 ft | 0 kts | 309° |
| 2026-04-27 17:57 | 42.46182 | -71.29386 | 129 ft | 3 kts | 315° |
| 2026-04-27 17:57 | 42.46191 | -71.29398 | 129 ft | 0 kts | 317° |
| 2026-04-27 17:57 | 42.46192 | -71.29399 | 129 ft | 0 kts | 317° |
| 2026-04-27 18:00 | 42.46193 | -71.29401 | 129 ft | 1 kts | 318° |
| 2026-04-27 18:00 | 42.46206 | -71.29420 | 129 ft | 4 kts | 307° |
| 2026-04-27 18:00 | 42.46232 | -71.29459 | 129 ft | 6 kts | 314° |
| 2026-04-27 18:00 | 42.46262 | -71.29507 | 129 ft | 9 kts | 306° |
| 2026-04-27 18:01 | 42.46302 | -71.29581 | 129 ft | 9 kts | 308° |
| 2026-04-27 18:01 | 42.46343 | -71.29645 | 129 ft | 9 kts | 321° |
| 2026-04-27 18:01 | 42.46388 | -71.29642 | 129 ft | 0 kts | 38° |
| 2026-04-27 18:01 | 42.46389 | -71.29641 | 129 ft | 3 kts | 37° |
| 2026-04-27 18:02 | 42.46562 | -71.29459 | 126 ft | 64 kts | 38° |
| 2026-04-27 18:02 | 42.47093 | -71.28925 | 172 ft | 116 kts | 39° |
| 2026-04-27 18:02 | 42.47658 | -71.28258 | 657 ft | 114 kts | 39° |
| 2026-04-27 18:02 | 42.48394 | -71.27580 | 887 ft | 143 kts | 36° |
| 2026-04-27 18:03 | 42.49325 | -71.26796 | 1233 ft | 173 kts | 24° |
| 2026-04-27 18:03 | 42.50634 | -71.26884 | 1547 ft | 210 kts | 340° |
| 2026-04-27 18:03 | 42.51799 | -71.28269 | 1849 ft | 241 kts | 308° |
| 2026-04-27 18:03 | 42.52673 | -71.30378 | 2127 ft | 267 kts | 292° |
| 2026-04-27 18:04 | 42.52770 | -71.32954 | 2406 ft | 287 kts | 260° |
| 2026-04-27 18:04 | 42.52029 | -71.35549 | 2661 ft | 302 kts | 236° |
| 2026-04-27 18:04 | 42.50485 | -71.37476 | 2960 ft | 308 kts | 213° |
| 2026-04-27 18:04 | 42.48653 | -71.39005 | 3238 ft | 301 kts | 208° |
| 2026-04-27 18:05 | 42.46834 | -71.40308 | 3492 ft | 288 kts | 206° |
| 2026-04-27 18:05 | 42.45064 | -71.41510 | 3751 ft | 277 kts | 205° |
| 2026-04-27 18:05 | 42.43338 | -71.42660 | 4008 ft | 269 kts | 205° |
| 2026-04-27 18:05 | 42.41682 | -71.43757 | 4278 ft | 263 kts | 204° |
| 2026-04-27 18:06 | 42.40074 | -71.44886 | 4518 ft | 259 kts | 213° |
| 2026-04-27 18:06 | 42.39089 | -71.46875 | 5372 ft | 251 kts | 253° |
| 2026-04-27 18:06 | 42.38626 | -71.49159 | 6036 ft | 255 kts | 258° |
| 2026-04-27 18:06 | 42.38251 | -71.51483 | 6759 ft | 254 kts | 260° |
| 2026-04-27 18:07 | 42.37878 | -71.53855 | 7393 ft | 258 kts | 260° |
| 2026-04-27 18:07 | 42.37493 | -71.56252 | 8066 ft | 263 kts | 260° |
| 2026-04-27 18:07 | 42.37100 | -71.58629 | 8948 ft | 263 kts | 260° |
| 2026-04-27 18:07 | 42.36688 | -71.61064 | 9714 ft | 267 kts | 261° |
| 2026-04-27 18:08 | 42.36265 | -71.63514 | 10469 ft | 271 kts | 260° |
| 2026-04-27 18:08 | 42.35829 | -71.66006 | 11244 ft | 272 kts | 259° |
| 2026-04-27 18:08 | 42.35383 | -71.68530 | 11959 ft | 276 kts | 259° |
| 2026-04-27 18:08 | 42.34931 | -71.71060 | 12691 ft | 277 kts | 259° |
| 2026-04-27 18:09 | 42.34475 | -71.73601 | 13377 ft | 279 kts | 259° |
| 2026-04-27 18:09 | 42.34012 | -71.76172 | 14034 ft | 282 kts | 259° |
| 2026-04-27 18:09 | 42.33544 | -71.78755 | 14675 ft | 285 kts | 260° |
| 2026-04-27 18:09 | 42.33073 | -71.81345 | 15342 ft | 285 kts | 260° |
| 2026-04-27 18:10 | 42.32592 | -71.83987 | 15846 ft | 294 kts | 260° |
| 2026-04-27 18:10 | 42.32094 | -71.86722 | 15954 ft | 304 kts | 260° |
| 2026-04-27 18:10 | 42.31577 | -71.89548 | 15971 ft | 312 kts | 260° |
| 2026-04-27 18:10 | 42.31050 | -71.92423 | 15973 ft | 318 kts | 260° |
| 2026-04-27 18:11 | 42.30510 | -71.95364 | 15971 ft | 324 kts | 260° |
| 2026-04-27 18:11 | 42.29959 | -71.98354 | 15963 ft | 329 kts | 260° |
| 2026-04-27 18:11 | 42.29406 | -72.01351 | 15961 ft | 333 kts | 260° |
| 2026-04-27 18:11 | 42.28841 | -72.04406 | 15959 ft | 336 kts | 260° |
| 2026-04-27 18:12 | 42.28272 | -72.07481 | 15958 ft | 338 kts | 259° |
| 2026-04-27 18:12 | 42.27693 | -72.10602 | 15950 ft | 340 kts | 260° |
| 2026-04-27 18:12 | 42.27118 | -72.13699 | 15947 ft | 341 kts | 259° |
| 2026-04-27 18:12 | 42.26540 | -72.16802 | 15950 ft | 342 kts | 260° |
| 2026-04-27 18:13 | 42.25955 | -72.19943 | 15947 ft | 343 kts | 260° |
| 2026-04-27 18:13 | 42.25378 | -72.23037 | 15946 ft | 343 kts | 259° |
| 2026-04-27 18:13 | 42.24795 | -72.26159 | 15944 ft | 344 kts | 260° |
| 2026-04-27 18:13 | 42.24203 | -72.29319 | 15943 ft | 344 kts | 259° |
| 2026-04-27 18:14 | 42.23616 | -72.32449 | 15943 ft | 344 kts | 259° |
| 2026-04-27 18:14 | 42.23030 | -72.35577 | 15939 ft | 345 kts | 259° |
| 2026-04-27 18:14 | 42.22435 | -72.38741 | 15946 ft | 345 kts | 260° |
| 2026-04-27 18:14 | 42.21846 | -72.41865 | 15948 ft | 345 kts | 259° |
| 2026-04-27 18:15 | 42.21251 | -72.45016 | 15950 ft | 345 kts | 259° |
| 2026-04-27 18:15 | 42.20661 | -72.48139 | 15947 ft | 346 kts | 260° |
| 2026-04-27 18:15 | 42.20067 | -72.51279 | 15951 ft | 346 kts | 260° |
| 2026-04-27 18:15 | 42.19463 | -72.54466 | 15946 ft | 346 kts | 259° |
| 2026-04-27 18:16 | 42.18868 | -72.57598 | 15949 ft | 346 kts | 259° |
| 2026-04-27 18:16 | 42.18267 | -72.60758 | 15952 ft | 346 kts | 260° |
| 2026-04-27 18:16 | 42.17666 | -72.63911 | 15953 ft | 346 kts | 259° |
| 2026-04-27 18:16 | 42.17059 | -72.67096 | 15952 ft | 346 kts | 259° |
| 2026-04-27 18:17 | 42.16453 | -72.70271 | 15954 ft | 346 kts | 259° |
| 2026-04-27 18:17 | 42.16054 | -72.73502 | 15960 ft | 342 kts | 268° |
| 2026-04-27 18:17 | 42.15821 | -72.76684 | 15954 ft | 342 kts | 269° |
| 2026-04-27 18:17 | 42.15614 | -72.79900 | 15957 ft | 342 kts | 269° |
| 2026-04-27 18:18 | 42.15409 | -72.83116 | 15956 ft | 342 kts | 269° |
| 2026-04-27 18:18 | 42.15204 | -72.86324 | 15959 ft | 343 kts | 269° |
| 2026-04-27 18:18 | 42.14996 | -72.89543 | 15960 ft | 343 kts | 269° |
| 2026-04-27 18:18 | 42.14787 | -72.92741 | 15969 ft | 343 kts | 269° |
| 2026-04-27 18:19 | 42.14574 | -72.95963 | 15962 ft | 343 kts | 269° |
| 2026-04-27 18:19 | 42.14360 | -72.99176 | 15962 ft | 343 kts | 269° |
| 2026-04-27 18:19 | 42.14142 | -73.02430 | 15943 ft | 343 kts | 269° |
| 2026-04-27 18:19 | 42.13924 | -73.05639 | 15966 ft | 343 kts | 269° |
| 2026-04-27 18:20 | 42.13703 | -73.08897 | 15969 ft | 344 kts | 269° |
| 2026-04-27 18:20 | 42.13484 | -73.12106 | 15961 ft | 344 kts | 269° |
| 2026-04-27 18:20 | 42.13264 | -73.15311 | 15954 ft | 344 kts | 269° |
| 2026-04-27 18:20 | 42.13038 | -73.18579 | 15955 ft | 344 kts | 269° |
| 2026-04-27 18:21 | 42.12814 | -73.21810 | 15957 ft | 344 kts | 269° |
| 2026-04-27 18:21 | 42.12588 | -73.25056 | 15957 ft | 344 kts | 269° |
| 2026-04-27 18:21 | 42.12362 | -73.28283 | 15955 ft | 344 kts | 269° |
| 2026-04-27 18:21 | 42.12136 | -73.31509 | 15953 ft | 344 kts | 269° |
| 2026-04-27 18:22 | 42.11910 | -73.34719 | 15962 ft | 344 kts | 269° |
| 2026-04-27 18:22 | 42.11678 | -73.37985 | 15958 ft | 344 kts | 269° |
| 2026-04-27 18:22 | 42.11451 | -73.41180 | 15951 ft | 344 kts | 269° |
| 2026-04-27 18:22 | 42.11220 | -73.44415 | 15952 ft | 344 kts | 269° |
| 2026-04-27 18:23 | 42.10991 | -73.47617 | 15948 ft | 344 kts | 269° |
| 2026-04-27 18:23 | 42.10760 | -73.50824 | 15953 ft | 344 kts | 269° |
| 2026-04-27 18:23 | 42.10528 | -73.54035 | 15946 ft | 343 kts | 269° |
| 2026-04-27 18:23 | 42.10293 | -73.57268 | 15949 ft | 343 kts | 269° |
| 2026-04-27 18:24 | 42.10059 | -73.60480 | 15949 ft | 343 kts | 269° |
| 2026-04-27 18:24 | 42.09826 | -73.63669 | 15949 ft | 343 kts | 269° |
| 2026-04-27 18:24 | 42.09591 | -73.66882 | 15945 ft | 343 kts | 269° |
| 2026-04-27 18:24 | 42.09353 | -73.70109 | 15954 ft | 343 kts | 269° |
| 2026-04-27 18:25 | 42.09116 | -73.73312 | 15955 ft | 344 kts | 269° |
| 2026-04-27 18:25 | 42.08877 | -73.76518 | 15951 ft | 344 kts | 269° |
| 2026-04-27 18:25 | 42.08640 | -73.79717 | 15947 ft | 344 kts | 269° |
| 2026-04-27 18:25 | 42.08397 | -73.82954 | 15949 ft | 344 kts | 269° |
| 2026-04-27 18:26 | 42.08157 | -73.86155 | 15962 ft | 343 kts | 269° |
| 2026-04-27 18:26 | 42.07918 | -73.89333 | 15951 ft | 343 kts | 269° |
| 2026-04-27 18:26 | 42.07673 | -73.92562 | 15955 ft | 343 kts | 269° |
| 2026-04-27 18:26 | 42.07432 | -73.95729 | 15952 ft | 343 kts | 269° |
| 2026-04-27 18:27 | 42.07186 | -73.98959 | 15943 ft | 344 kts | 269° |
| 2026-04-27 18:27 | 42.06941 | -74.02161 | 15944 ft | 344 kts | 269° |
| 2026-04-27 18:27 | 42.06694 | -74.05386 | 15945 ft | 344 kts | 269° |
| 2026-04-27 18:27 | 42.06450 | -74.08553 | 15948 ft | 344 kts | 269° |
| 2026-04-27 18:28 | 42.06200 | -74.11777 | 15949 ft | 345 kts | 269° |
| 2026-04-27 18:28 | 42.05949 | -74.15017 | 15943 ft | 345 kts | 269° |
| 2026-04-27 18:28 | 42.05700 | -74.18214 | 15951 ft | 345 kts | 269° |
| 2026-04-27 18:28 | 42.05449 | -74.21416 | 15952 ft | 345 kts | 269° |
| 2026-04-27 18:29 | 42.05195 | -74.24652 | 15946 ft | 345 kts | 269° |
| 2026-04-27 18:29 | 42.04923 | -74.27847 | 15944 ft | 343 kts | 266° |
| 2026-04-27 18:29 | 42.04033 | -74.30810 | 15946 ft | 350 kts | 239° |
| 2026-04-27 18:29 | 42.02276 | -74.33093 | 15960 ft | 352 kts | 218° |
| 2026-04-27 18:30 | 42.00196 | -74.34898 | 15946 ft | 352 kts | 212° |
| 2026-04-27 18:30 | 41.98080 | -74.36543 | 15939 ft | 350 kts | 211° |
| 2026-04-27 18:30 | 41.95927 | -74.38155 | 15948 ft | 349 kts | 210° |
| 2026-04-27 18:30 | 41.93775 | -74.39745 | 15934 ft | 348 kts | 210° |
| 2026-04-27 18:31 | 41.91645 | -74.41308 | 15937 ft | 347 kts | 210° |
| 2026-04-27 18:31 | 41.89527 | -74.42853 | 15939 ft | 347 kts | 210° |
| 2026-04-27 18:31 | 41.87368 | -74.44425 | 15939 ft | 346 kts | 210° |
| 2026-04-27 18:31 | 41.85262 | -74.45954 | 15939 ft | 342 kts | 210° |
| 2026-04-27 18:32 | 41.83195 | -74.47450 | 15923 ft | 329 kts | 210° |
| 2026-04-27 18:32 | 41.81205 | -74.48888 | 15915 ft | 317 kts | 210° |
| 2026-04-27 18:32 | 41.79243 | -74.50305 | 15530 ft | 321 kts | 210° |
| 2026-04-27 18:32 | 41.77268 | -74.51725 | 15050 ft | 326 kts | 208° |
| 2026-04-27 18:33 | 41.75100 | -74.52631 | 14556 ft | 330 kts | 188° |
| 2026-04-27 18:33 | 41.72842 | -74.53104 | 14059 ft | 328 kts | 188° |
| 2026-04-27 18:33 | 41.70584 | -74.53552 | 13566 ft | 324 kts | 188° |
| 2026-04-27 18:33 | 41.68361 | -74.53980 | 13071 ft | 318 kts | 187° |
| 2026-04-27 18:34 | 41.66177 | -74.54398 | 12577 ft | 314 kts | 187° |
| 2026-04-27 18:34 | 41.64002 | -74.54811 | 12077 ft | 310 kts | 187° |
| 2026-04-27 18:34 | 41.61893 | -74.55212 | 11580 ft | 306 kts | 187° |
| 2026-04-27 18:34 | 41.59781 | -74.55612 | 11081 ft | 303 kts | 187° |
| 2026-04-27 18:35 | 41.57700 | -74.56006 | 10587 ft | 301 kts | 187° |
| 2026-04-27 18:35 | 41.55613 | -74.56400 | 10092 ft | 298 kts | 187° |
| 2026-04-27 18:35 | 41.53550 | -74.56789 | 9595 ft | 296 kts | 187° |
| 2026-04-27 18:35 | 41.51511 | -74.57174 | 9102 ft | 293 kts | 187° |
| 2026-04-27 18:36 | 41.49488 | -74.57555 | 8604 ft | 291 kts | 186° |
| 2026-04-27 18:36 | 41.47506 | -74.57929 | 8113 ft | 289 kts | 187° |
| 2026-04-27 18:36 | 41.45506 | -74.58305 | 7613 ft | 286 kts | 187° |
| 2026-04-27 18:36 | 41.43541 | -74.58675 | 7119 ft | 284 kts | 186° |
| 2026-04-27 18:37 | 41.41591 | -74.59044 | 6625 ft | 281 kts | 186° |
| 2026-04-27 18:37 | 41.39660 | -74.59629 | 6127 ft | 280 kts | 193° |
| 2026-04-27 18:37 | 41.37828 | -74.60304 | 5962 ft | 266 kts | 194° |
| 2026-04-27 18:37 | 41.36076 | -74.60979 | 5931 ft | 251 kts | 194° |
| 2026-04-27 18:38 | 41.34425 | -74.61616 | 5940 ft | 244 kts | 194° |
| 2026-04-27 18:38 | 41.32818 | -74.62234 | 5940 ft | 235 kts | 193° |
| 2026-04-27 18:38 | 41.31274 | -74.62826 | 5940 ft | 228 kts | 193° |
| 2026-04-27 18:38 | 41.29733 | -74.63010 | 5921 ft | 217 kts | 164° |
| 2026-04-27 18:39 | 41.28344 | -74.62302 | 5944 ft | 208 kts | 151° |
| 2026-04-27 18:39 | 41.27063 | -74.61440 | 5943 ft | 205 kts | 149° |
| 2026-04-27 18:39 | 41.25810 | -74.60543 | 5947 ft | 204 kts | 148° |
| 2026-04-27 18:39 | 41.24552 | -74.59634 | 5947 ft | 200 kts | 148° |
| 2026-04-27 18:40 | 41.23320 | -74.58737 | 5594 ft | 204 kts | 148° |
| 2026-04-27 18:40 | 41.22095 | -74.57841 | 5348 ft | 201 kts | 148° |
| 2026-04-27 18:40 | 41.20853 | -74.56923 | 5101 ft | 200 kts | 148° |
| 2026-04-27 18:40 | 41.19655 | -74.56038 | 4856 ft | 199 kts | 148° |
| 2026-04-27 18:41 | 41.18440 | -74.55141 | 4610 ft | 198 kts | 148° |
| 2026-04-27 18:41 | 41.17231 | -74.54247 | 4366 ft | 198 kts | 148° |
| 2026-04-27 18:41 | 41.16013 | -74.53348 | 4056 ft | 208 kts | 148° |
| 2026-04-27 18:41 | 41.14695 | -74.52364 | 3813 ft | 224 kts | 148° |
| 2026-04-27 18:42 | 41.13294 | -74.51308 | 3588 ft | 236 kts | 148° |
| 2026-04-27 18:42 | 41.12338 | -74.50584 | 3434 ft | 242 kts | 148° |
| 2026-04-27 18:42 | 41.10344 | -74.49069 | 3120 ft | 252 kts | 148° |
| 2026-04-27 18:42 | 41.08810 | -74.47896 | 2985 ft | 252 kts | 148° |
| 2026-04-27 18:43 | 41.07294 | -74.46742 | 2960 ft | 248 kts | 148° |
| 2026-04-27 18:43 | 41.05820 | -74.45620 | 2957 ft | 244 kts | 148° |
| 2026-04-27 18:43 | 41.04340 | -74.44501 | 2957 ft | 242 kts | 148° |
| 2026-04-27 18:43 | 41.02749 | -74.43830 | 2949 ft | 245 kts | 175° |
| 2026-04-27 18:44 | 41.01052 | -74.43767 | 2957 ft | 243 kts | 174° |
| 2026-04-27 18:44 | 40.99359 | -74.43622 | 2958 ft | 242 kts | 174° |
| 2026-04-27 18:44 | 40.97694 | -74.43462 | 2951 ft | 235 kts | 173° |
| 2026-04-27 18:44 | 40.96073 | -74.43295 | 2951 ft | 229 kts | 173° |
| 2026-04-27 18:45 | 40.94508 | -74.43124 | 2952 ft | 225 kts | 173° |
| 2026-04-27 18:45 | 40.92957 | -74.42950 | 2953 ft | 221 kts | 172° |
| 2026-04-27 18:45 | 40.91412 | -74.42770 | 2956 ft | 218 kts | 172° |
| 2026-04-27 18:45 | 40.89912 | -74.42591 | 2954 ft | 217 kts | 172° |
| 2026-04-27 18:46 | 40.88387 | -74.42408 | 2957 ft | 215 kts | 172° |
| 2026-04-27 18:46 | 40.86910 | -74.42228 | 2957 ft | 213 kts | 172° |
| 2026-04-27 18:46 | 40.85411 | -74.42044 | 2959 ft | 212 kts | 172° |
| 2026-04-27 18:46 | 40.83936 | -74.41862 | 2958 ft | 211 kts | 172° |
| 2026-04-27 18:47 | 40.82467 | -74.41679 | 2957 ft | 210 kts | 172° |
| 2026-04-27 18:47 | 40.81015 | -74.41487 | 2956 ft | 209 kts | 169° |
| 2026-04-27 18:47 | 40.79736 | -74.40662 | 2963 ft | 200 kts | 136° |
| 2026-04-27 18:47 | 40.78759 | -74.39368 | 2888 ft | 203 kts | 129° |
| 2026-04-27 18:48 | 40.77807 | -74.37906 | 2675 ft | 204 kts | 127° |
| 2026-04-27 18:48 | 40.76893 | -74.36453 | 2310 ft | 203 kts | 127° |
| 2026-04-27 18:48 | 40.75997 | -74.35016 | 2014 ft | 199 kts | 126° |
| 2026-04-27 18:48 | 40.75133 | -74.33646 | 1953 ft | 186 kts | 127° |
| 2026-04-27 18:49 | 40.74327 | -74.32381 | 1943 ft | 174 kts | 127° |
| 2026-04-27 18:49 | 40.73563 | -74.31185 | 1949 ft | 165 kts | 127° |
| 2026-04-27 18:49 | 40.72836 | -74.30053 | 1943 ft | 160 kts | 127° |
| 2026-04-27 18:49 | 40.72248 | -74.28854 | 1928 ft | 153 kts | 99° |
| 2026-04-27 18:50 | 40.72377 | -74.27490 | 1968 ft | 146 kts | 79° |
| 2026-04-27 18:50 | 40.72435 | -74.26137 | 1964 ft | 154 kts | 83° |
| 2026-04-27 18:50 | 40.72487 | -74.25674 | 1977 ft | 159 kts | 78° |